sensor_id;sensor_type;location;lat;lon;timestamp;pressure;altitude;pressure_sealevel;temperature;humidity
79048;BME280;68680;50.764;6.120;2023-06-22T00:01:17;99668.78;;;20.87;63.27
79048;BME280;68680;50.764;6.120;2023-06-22T00:03:43;99666.66;;;20.84;63.35
79048;BME280;68680;50.764;6.120;2023-06-22T00:06:10;99663.19;;;20.78;64.68
79048;BME280;68680;50.764;6.120;2023-06-22T00:08:36;99674.06;;;20.73;64.27
79048;BME280;68680;50.764;6.120;2023-06-22T00:11:02;99671.38;;;20.68;64.77
79048;BME280;68680;50.764;6.120;2023-06-22T00:13:27;99676.84;;;20.63;65.46
79048;BME280;68680;50.764;6.120;2023-06-22T00:15:53;99674.78;;;20.50;65.42
79048;BME280;68680;50.764;6.120;2023-06-22T00:18:19;99678.63;;;20.49;65.96
79048;BME280;68680;50.764;6.120;2023-06-22T00:20:45;99683.28;;;20.43;65.41
79048;BME280;68680;50.764;6.120;2023-06-22T00:23:12;99679.44;;;20.44;65.57
79048;BME280;68680;50.764;6.120;2023-06-22T00:25:38;99680.78;;;20.47;66.38
79048;BME280;68680;50.764;6.120;2023-06-22T00:28:04;99682.22;;;20.34;66.02
79048;BME280;68680;50.764;6.120;2023-06-22T00:30:31;99677.63;;;20.30;66.45
79048;BME280;68680;50.764;6.120;2023-06-22T00:32:57;99666.81;;;20.30;66.75
79048;BME280;68680;50.764;6.120;2023-06-22T00:35:23;99668.19;;;20.32;66.72
79048;BME280;68680;50.764;6.120;2023-06-22T00:37:49;99661.94;;;20.27;66.83
79048;BME280;68680;50.764;6.120;2023-06-22T00:40:16;99664.38;;;20.28;66.96
79048;BME280;68680;50.764;6.120;2023-06-22T00:42:42;99664.69;;;20.22;66.26
79048;BME280;68680;50.764;6.120;2023-06-22T00:45:09;99657.63;;;20.26;66.71
79048;BME280;68680;50.764;6.120;2023-06-22T00:47:36;99660.34;;;20.26;66.09
79048;BME280;68680;50.764;6.120;2023-06-22T00:50:07;99652.22;;;20.26;66.21
79048;BME280;68680;50.764;6.120;2023-06-22T00:52:34;99655.47;;;20.23;66.41
79048;BME280;68680;50.764;6.120;2023-06-22T00:55:02;99642.19;;;20.21;66.05
79048;BME280;68680;50.764;6.120;2023-06-22T00:57:30;99653.34;;;20.20;66.37
79048;BME280;68680;50.764;6.120;2023-06-22T00:59:56;99650.09;;;20.18;67.36
79048;BME280;68680;50.764;6.120;2023-06-22T01:02:22;99639.31;;;20.13;68.45
79048;BME280;68680;50.764;6.120;2023-06-22T01:04:47;99640.75;;;20.00;68.97
79048;BME280;68680;50.764;6.120;2023-06-22T01:07:24;99637.84;;;19.91;70.61
79048;BME280;68680;50.764;6.120;2023-06-22T01:10:01;99635.94;;;19.87;70.73
79048;BME280;68680;50.764;6.120;2023-06-22T01:12:38;99631.66;;;19.81;70.65
79048;BME280;68680;50.764;6.120;2023-06-22T01:15:13;99625.50;;;19.70;70.63
79048;BME280;68680;50.764;6.120;2023-06-22T01:17:43;99620.34;;;19.74;70.91
79048;BME280;68680;50.764;6.120;2023-06-22T01:20:12;99620.31;;;19.79;70.64
79048;BME280;68680;50.764;6.120;2023-06-22T01:22:55;99616.22;;;19.81;70.86
79048;BME280;68680;50.764;6.120;2023-06-22T01:25:46;99620.34;;;19.74;70.73
79048;BME280;68680;50.764;6.120;2023-06-22T01:28:37;99614.22;;;19.53;72.00
79048;BME280;68680;50.764;6.120;2023-06-22T01:31:04;99615.88;;;19.44;72.14
79048;BME280;68680;50.764;6.120;2023-06-22T01:33:33;99614.50;;;19.46;72.57
79048;BME280;68680;50.764;6.120;2023-06-22T01:36:00;99617.22;;;19.41;72.28
79048;BME280;68680;50.764;6.120;2023-06-22T01:38:28;99620.50;;;19.33;72.93
79048;BME280;68680;50.764;6.120;2023-06-22T01:40:55;99616.44;;;19.36;73.06
79048;BME280;68680;50.764;6.120;2023-06-22T01:43:23;99615.88;;;19.44;73.13
79048;BME280;68680;50.764;6.120;2023-06-22T01:45:52;99608.28;;;19.41;73.32
79048;BME280;68680;50.764;6.120;2023-06-22T01:48:20;99610.19;;;19.40;72.97
79048;BME280;68680;50.764;6.120;2023-06-22T01:50:47;99607.81;;;19.28;73.58
79048;BME280;68680;50.764;6.120;2023-06-22T01:53:12;99612.94;;;19.30;73.87
79048;BME280;68680;50.764;6.120;2023-06-22T01:55:38;99606.75;;;19.24;73.79
79048;BME280;68680;50.764;6.120;2023-06-22T01:58:04;99609.69;;;19.28;74.20
79048;BME280;68680;50.764;6.120;2023-06-22T02:00:35;99605.66;;;19.25;73.99
79048;BME280;68680;50.764;6.120;2023-06-22T02:03:11;99603.53;;;19.17;74.45
79048;BME280;68680;50.764;6.120;2023-06-22T02:05:48;99605.69;;;19.10;73.92
79048;BME280;68680;50.764;6.120;2023-06-22T02:08:22;99601.09;;;19.11;73.25
79048;BME280;68680;50.764;6.120;2023-06-22T02:10:50;99598.69;;;19.14;73.19
79048;BME280;68680;50.764;6.120;2023-06-22T02:13:19;99597.56;;;19.20;73.24
79048;BME280;68680;50.764;6.120;2023-06-22T02:15:46;99591.91;;;19.17;73.79
79048;BME280;68680;50.764;6.120;2023-06-22T02:18:14;99598.41;;;19.16;73.73
79048;BME280;68680;50.764;6.120;2023-06-22T02:20:40;99600.31;;;19.15;73.59
79048;BME280;68680;50.764;6.120;2023-06-22T02:23:06;99597.59;;;19.15;74.17
79048;BME280;68680;50.764;6.120;2023-06-22T02:25:32;99597.88;;;19.09;74.00
79048;BME280;68680;50.764;6.120;2023-06-22T02:27:58;99593.59;;;19.03;74.51
79048;BME280;68680;50.764;6.120;2023-06-22T02:30:24;99586.28;;;19.03;74.93
79048;BME280;68680;50.764;6.120;2023-06-22T02:32:50;99588.44;;;19.06;75.36
79048;BME280;68680;50.764;6.120;2023-06-22T02:35:17;99584.94;;;19.01;75.10
79048;BME280;68680;50.764;6.120;2023-06-22T02:37:43;99572.78;;;19.03;75.07
79048;BME280;68680;50.764;6.120;2023-06-22T02:40:10;99570.84;;;19.09;74.88
79048;BME280;68680;50.764;6.120;2023-06-22T02:42:36;99579.22;;;19.07;74.74
79048;BME280;68680;50.764;6.120;2023-06-22T02:45:03;99578.41;;;19.07;74.69
79048;BME280;68680;50.764;6.120;2023-06-22T02:47:29;99569.50;;;19.06;74.61
79048;BME280;68680;50.764;6.120;2023-06-22T02:49:55;99568.72;;;19.01;74.89
79048;BME280;68680;50.764;6.120;2023-06-22T02:52:22;99558.94;;;19.15;74.63
79048;BME280;68680;50.764;6.120;2023-06-22T02:54:47;99559.47;;;19.12;74.73
79048;BME280;68680;50.764;6.120;2023-06-22T02:57:13;99557.03;;;19.15;73.82
79048;BME280;68680;50.764;6.120;2023-06-22T02:59:39;99564.84;;;19.17;74.03
79048;BME280;68680;50.764;6.120;2023-06-22T03:02:05;99552.16;;;19.17;74.14
79048;BME280;68680;50.764;6.120;2023-06-22T03:04:31;99548.06;;;19.25;73.21
79048;BME280;68680;50.764;6.120;2023-06-22T03:06:57;99528.84;;;19.32;73.07
79048;BME280;68680;50.764;6.120;2023-06-22T03:09:24;99517.16;;;19.36;72.00
79048;BME280;68680;50.764;6.120;2023-06-22T03:11:49;99507.13;;;19.42;71.74
79048;BME280;68680;50.764;6.120;2023-06-22T03:14:15;99512.81;;;19.45;71.22
79048;BME280;68680;50.764;6.120;2023-06-22T03:16:41;99516.63;;;19.39;71.39
79048;BME280;68680;50.764;6.120;2023-06-22T03:19:07;99519.03;;;19.41;70.93
79048;BME280;68680;50.764;6.120;2023-06-22T03:21:32;99519.09;;;19.31;71.23
79048;BME280;68680;50.764;6.120;2023-06-22T03:23:58;99514.25;;;19.27;72.77
79048;BME280;68680;50.764;6.120;2023-06-22T03:26:25;99519.59;;;19.38;73.13
79048;BME280;68680;50.764;6.120;2023-06-22T03:28:51;99521.53;;;19.32;73.09
79048;BME280;68680;50.764;6.120;2023-06-22T03:31:17;99518.81;;;19.32;72.68
79048;BME280;68680;50.764;6.120;2023-06-22T03:33:42;99520.75;;;19.26;73.11
79048;BME280;68680;50.764;6.120;2023-06-22T03:36:08;99522.38;;;19.22;73.64
79048;BME280;68680;50.764;6.120;2023-06-22T03:38:34;99523.75;;;19.20;74.08
79048;BME280;68680;50.764;6.120;2023-06-22T03:41:00;99518.63;;;19.18;74.98
79048;BME280;68680;50.764;6.120;2023-06-22T03:43:27;99519.97;;;19.21;74.28
79048;BME280;68680;50.764;6.120;2023-06-22T03:45:52;99522.66;;;19.21;73.99
79048;BME280;68680;50.764;6.120;2023-06-22T03:48:18;99532.06;;;19.28;73.30
79048;BME280;68680;50.764;6.120;2023-06-22T03:50:44;99531.28;;;19.23;73.32
79048;BME280;68680;50.764;6.120;2023-06-22T03:53:10;99528.88;;;19.26;72.43
79048;BME280;68680;50.764;6.120;2023-06-22T03:55:36;99525.84;;;19.33;73.02
79048;BME280;68680;50.764;6.120;2023-06-22T03:58:01;99533.44;;;19.31;72.04
79048;BME280;68680;50.764;6.120;2023-06-22T04:00:29;99537.78;;;19.27;72.08
79048;BME280;68680;50.764;6.120;2023-06-22T04:02:55;99534.78;;;19.28;71.35
79048;BME280;68680;50.764;6.120;2023-06-22T04:05:20;99541.28;;;19.33;71.96
79048;BME280;68680;50.764;6.120;2023-06-22T04:07:46;99538.28;;;19.29;72.60
79048;BME280;68680;50.764;6.120;2023-06-22T04:10:12;99532.06;;;19.28;73.27
79048;BME280;68680;50.764;6.120;2023-06-22T04:12:37;99531.50;;;19.37;73.47
79048;BME280;68680;50.764;6.120;2023-06-22T04:15:05;99543.72;;;19.24;74.46
79048;BME280;68680;50.764;6.120;2023-06-22T04:17:32;99553.44;;;19.30;74.22
79048;BME280;68680;50.764;6.120;2023-06-22T04:19:58;99551.78;;;19.34;74.06
79048;BME280;68680;50.764;6.120;2023-06-22T04:22:23;99547.56;;;19.18;74.47
79048;BME280;68680;50.764;6.120;2023-06-22T04:24:49;99539.47;;;19.13;74.65
79048;BME280;68680;50.764;6.120;2023-06-22T04:27:15;99542.72;;;19.15;74.97
79048;BME280;68680;50.764;6.120;2023-06-22T04:29:41;99540.53;;;19.17;75.27
79048;BME280;68680;50.764;6.120;2023-06-22T04:32:07;99538.59;;;19.22;75.09
79048;BME280;68680;50.764;6.120;2023-06-22T04:34:34;99536.66;;;19.33;75.06
79048;BME280;68680;50.764;6.120;2023-06-22T04:37:00;99534.50;;;19.30;74.98
79048;BME280;68680;50.764;6.120;2023-06-22T04:39:26;99530.75;;;19.26;74.43
79048;BME280;68680;50.764;6.120;2023-06-22T04:41:51;99540.47;;;19.32;74.23
79048;BME280;68680;50.764;6.120;2023-06-22T04:44:18;99550.19;;;19.33;74.46
79048;BME280;68680;50.764;6.120;2023-06-22T04:46:44;99538.50;;;19.43;74.09
79048;BME280;68680;50.764;6.120;2023-06-22T04:49:10;99542.56;;;19.40;74.42
79048;BME280;68680;50.764;6.120;2023-06-22T04:51:40;99547.97;;;19.45;73.70
79048;BME280;68680;50.764;6.120;2023-06-22T04:54:07;99544.44;;;19.50;74.48
79048;BME280;68680;50.764;6.120;2023-06-22T04:56:34;99543.31;;;19.56;73.96
79048;BME280;68680;50.764;6.120;2023-06-22T04:59:00;99536.75;;;19.67;73.89
79048;BME280;68680;50.764;6.120;2023-06-22T05:01:26;99532.94;;;19.73;71.63
79048;BME280;68680;50.764;6.120;2023-06-22T05:03:52;99535.31;;;19.75;71.93
79048;BME280;68680;50.764;6.120;2023-06-22T05:06:18;99529.63;;;19.76;72.50
79048;BME280;68680;50.764;6.120;2023-06-22T05:08:45;99529.28;;;19.88;70.54
79048;BME280;68680;50.764;6.120;2023-06-22T05:11:11;99527.94;;;19.90;69.51
79048;BME280;68680;50.764;6.120;2023-06-22T05:13:37;99534.97;;;19.91;70.22
79048;BME280;68680;50.764;6.120;2023-06-22T05:16:03;99528.41;;;19.97;69.10
79048;BME280;68680;50.764;6.120;2023-06-22T05:18:29;99537.69;;;20.20;68.29
79048;BME280;68680;50.764;6.120;2023-06-22T05:20:55;99536.72;;;20.06;69.89
79048;BME280;68680;50.764;6.120;2023-06-22T05:23:21;99531.34;;;20.01;70.01
79048;BME280;68680;50.764;6.120;2023-06-22T05:25:48;99532.66;;;20.03;70.39
79048;BME280;68680;50.764;6.120;2023-06-22T05:28:14;99528.38;;;20.02;70.60
79048;BME280;68680;50.764;6.120;2023-06-22T05:30:39;99530.25;;;20.02;70.75
79048;BME280;68680;50.764;6.120;2023-06-22T05:33:05;99528.63;;;20.01;70.86
79048;BME280;68680;50.764;6.120;2023-06-22T05:35:31;99537.00;;;20.04;71.13
79048;BME280;68680;50.764;6.120;2023-06-22T05:37:57;99536.13;;;20.14;71.01
79048;BME280;68680;50.764;6.120;2023-06-22T05:40:22;99541.28;;;20.10;71.03
79048;BME280;68680;50.764;6.120;2023-06-22T05:42:49;99536.88;;;20.20;70.00
79048;BME280;68680;50.764;6.120;2023-06-22T05:45:15;99536.28;;;20.23;70.10
79048;BME280;68680;50.764;6.120;2023-06-22T05:47:41;99548.97;;;20.27;69.92
79048;BME280;68680;50.764;6.120;2023-06-22T05:50:07;99544.16;;;20.24;70.48
79048;BME280;68680;50.764;6.120;2023-06-22T05:52:33;99538.94;;;20.28;69.90
79048;BME280;68680;50.764;6.120;2023-06-22T05:54:59;99549.78;;;20.28;70.10
79048;BME280;68680;50.764;6.120;2023-06-22T05:57:25;99543.56;;;20.32;70.55
79048;BME280;68680;50.764;6.120;2023-06-22T05:59:52;99551.66;;;20.37;70.55
79048;BME280;68680;50.764;6.120;2023-06-22T06:02:17;99545.91;;;20.39;70.70
79048;BME280;68680;50.764;6.120;2023-06-22T06:04:43;99546.19;;;20.42;69.57
79048;BME280;68680;50.764;6.120;2023-06-22T06:07:09;99543.19;;;20.44;70.24
79048;BME280;68680;50.764;6.120;2023-06-22T06:09:35;99541.31;;;20.39;70.53
79048;BME280;68680;50.764;6.120;2023-06-22T06:12:00;99551.06;;;20.40;70.56
79048;BME280;68680;50.764;6.120;2023-06-22T06:14:26;99555.63;;;20.45;70.33
79048;BME280;68680;50.764;6.120;2023-06-22T06:16:53;99558.84;;;20.47;70.78
79048;BME280;68680;50.764;6.120;2023-06-22T06:19:19;99555.06;;;20.48;69.57
79048;BME280;68680;50.764;6.120;2023-06-22T06:21:45;99558.53;;;20.54;68.40
79048;BME280;68680;50.764;6.120;2023-06-22T06:24:11;99554.41;;;20.56;68.19
79048;BME280;68680;50.764;6.120;2023-06-22T06:26:37;99551.63;;;20.66;67.59
79048;BME280;68680;50.764;6.120;2023-06-22T06:29:03;99545.84;;;20.73;67.08
79048;BME280;68680;50.764;6.120;2023-06-22T06:31:29;99544.47;;;20.75;67.93
79048;BME280;68680;50.764;6.120;2023-06-22T06:33:56;99547.28;;;20.89;66.50
79048;BME280;68680;50.764;6.120;2023-06-22T06:36:21;99548.03;;;20.95;67.14
79048;BME280;68680;50.764;6.120;2023-06-22T06:38:47;99542.03;;;20.98;67.38
79048;BME280;68680;50.764;6.120;2023-06-22T06:41:13;99533.59;;;20.99;66.96
79048;BME280;68680;50.764;6.120;2023-06-22T06:43:39;99540.47;;;20.91;66.88
79048;BME280;68680;50.764;6.120;2023-06-22T06:46:05;99536.91;;;20.96;66.80
79048;BME280;68680;50.764;6.120;2023-06-22T06:48:30;99527.75;;;21.11;65.72
79048;BME280;68680;50.764;6.120;2023-06-22T06:50:58;99527.72;;;21.16;65.85
79048;BME280;68680;50.764;6.120;2023-06-22T06:53:24;99521.38;;;21.25;64.91
79048;BME280;68680;50.764;6.120;2023-06-22T06:55:49;99515.28;;;21.34;64.77
79048;BME280;68680;50.764;6.120;2023-06-22T06:58:15;99509.13;;;21.28;65.66
79048;BME280;68680;50.764;6.120;2023-06-22T07:00:41;99509.56;;;21.35;66.05
79048;BME280;68680;50.764;6.120;2023-06-22T07:03:07;99498.09;;;21.38;66.16
79048;BME280;68680;50.764;6.120;2023-06-22T07:05:33;99489.13;;;21.43;66.55
79048;BME280;68680;50.764;6.120;2023-06-22T07:08:00;99484.63;;;21.52;65.60
79048;BME280;68680;50.764;6.120;2023-06-22T07:10:26;99484.53;;;21.57;65.95
79048;BME280;68680;50.764;6.120;2023-06-22T07:12:51;99481.97;;;21.65;65.89
79048;BME280;68680;50.764;6.120;2023-06-22T07:15:17;99473.28;;;21.82;64.77
79048;BME280;68680;50.764;6.120;2023-06-22T07:17:43;99464.16;;;21.92;64.60
79048;BME280;68680;50.764;6.120;2023-06-22T07:20:10;99464.16;;;21.92;65.15
79048;BME280;68680;50.764;6.120;2023-06-22T07:22:36;99457.03;;;21.96;64.76
79048;BME280;68680;50.764;6.120;2023-06-22T07:25:05;99456.75;;;21.97;65.15
79048;BME280;68680;50.764;6.120;2023-06-22T07:27:31;99447.91;;;22.19;63.12
79048;BME280;68680;50.764;6.120;2023-06-22T07:29:57;99448.56;;;22.30;62.27
79048;BME280;68680;50.764;6.120;2023-06-22T07:32:22;99442.72;;;22.36;62.65
79048;BME280;68680;50.764;6.120;2023-06-22T07:34:48;99438.59;;;22.39;62.92
79048;BME280;68680;50.764;6.120;2023-06-22T07:37:14;99438.47;;;22.44;63.00
79048;BME280;68680;50.764;6.120;2023-06-22T07:39:40;99436.16;;;22.37;63.67
79048;BME280;68680;50.764;6.120;2023-06-22T07:42:07;99445.81;;;22.43;63.62
79048;BME280;68680;50.764;6.120;2023-06-22T07:44:33;99444.13;;;22.47;63.82
79048;BME280;68680;50.764;6.120;2023-06-22T07:46:59;99443.31;;;22.47;63.94
79048;BME280;68680;50.764;6.120;2023-06-22T07:49:24;99446.75;;;22.52;64.23
79048;BME280;68680;50.764;6.120;2023-06-22T07:51:50;99441.50;;;22.42;64.76
79048;BME280;68680;50.764;6.120;2023-06-22T07:54:16;99437.19;;;22.41;63.92
79048;BME280;68680;50.764;6.120;2023-06-22T07:56:42;99425.63;;;22.36;63.98
79048;BME280;68680;50.764;6.120;2023-06-22T07:59:09;99415.34;;;22.46;64.59
79048;BME280;68680;50.764;6.120;2023-06-22T08:01:35;99399.22;;;22.50;64.85
79048;BME280;68680;50.764;6.120;2023-06-22T08:04:00;99385.09;;;22.62;64.24
79048;BME280;68680;50.764;6.120;2023-06-22T08:06:26;99373.94;;;22.63;64.08
79048;BME280;68680;50.764;6.120;2023-06-22T08:08:52;99377.16;;;22.65;64.78
79048;BME280;68680;50.764;6.120;2023-06-22T08:11:18;99391.97;;;22.73;63.73
79048;BME280;68680;50.764;6.120;2023-06-22T08:13:44;99401.16;;;22.77;63.67
79048;BME280;68680;50.764;6.120;2023-06-22T08:16:11;99401.44;;;22.75;64.47
79048;BME280;68680;50.764;6.120;2023-06-22T08:18:36;99407.56;;;22.81;64.10
79048;BME280;68680;50.764;6.120;2023-06-22T08:21:02;99405.84;;;22.85;64.14
79048;BME280;68680;50.764;6.120;2023-06-22T08:23:28;99428.91;;;22.87;64.62
79048;BME280;68680;50.764;6.120;2023-06-22T08:25:54;99421.50;;;23.02;63.68
79048;BME280;68680;50.764;6.120;2023-06-22T08:28:19;99407.34;;;22.91;64.89
79048;BME280;68680;50.764;6.120;2023-06-22T08:30:45;99401.38;;;23.03;64.43
79048;BME280;68680;50.764;6.120;2023-06-22T08:33:13;99400.56;;;23.02;65.51
79048;BME280;68680;50.764;6.120;2023-06-22T08:35:38;99388.09;;;23.23;64.25
79048;BME280;68680;50.764;6.120;2023-06-22T08:38:04;99384.03;;;23.34;63.21
79048;BME280;68680;50.764;6.120;2023-06-22T08:40:30;99379.94;;;23.46;63.40
79048;BME280;68680;50.764;6.120;2023-06-22T08:42:56;99379.84;;;23.51;63.28
79048;BME280;68680;50.764;6.120;2023-06-22T08:45:21;99379.19;;;23.54;63.77
79048;BME280;68680;50.764;6.120;2023-06-22T08:47:47;99372.72;;;23.63;63.29
79048;BME280;68680;50.764;6.120;2023-06-22T08:50:14;99383.94;;;23.70;63.16
79048;BME280;68680;50.764;6.120;2023-06-22T08:52:40;99376.13;;;23.78;62.44
79048;BME280;68680;50.764;6.120;2023-06-22T08:55:07;99367.53;;;23.84;62.36
79048;BME280;68680;50.764;6.120;2023-06-22T08:57:33;99369.34;;;23.97;61.66
79048;BME280;68680;50.764;6.120;2023-06-22T08:59:59;99370.53;;;24.05;61.60
79048;BME280;68680;50.764;6.120;2023-06-22T09:02:25;99369.31;;;24.20;61.61
79048;BME280;68680;50.764;6.120;2023-06-22T09:04:51;99357.50;;;24.33;61.19
79048;BME280;68680;50.764;6.120;2023-06-22T09:07:18;99357.66;;;24.36;60.96
79048;BME280;68680;50.764;6.120;2023-06-22T09:09:44;99343.41;;;24.39;60.55
79048;BME280;68680;50.764;6.120;2023-06-22T09:12:10;99344.81;;;24.37;60.97
79048;BME280;68680;50.764;6.120;2023-06-22T09:14:36;99342.75;;;24.42;60.42
79048;BME280;68680;50.764;6.120;2023-06-22T09:17:02;99338.75;;;24.48;61.15
79048;BME280;68680;50.764;6.120;2023-06-22T09:19:27;99331.69;;;24.47;60.54
79048;BME280;68680;50.764;6.120;2023-06-22T09:21:53;99337.13;;;24.47;61.20
79048;BME280;68680;50.764;6.120;2023-06-22T09:24:20;99339.06;;;24.38;61.68
79048;BME280;68680;50.764;6.120;2023-06-22T09:26:46;99339.06;;;24.47;61.03
79048;BME280;68680;50.764;6.120;2023-06-22T09:29:12;99341.59;;;24.35;61.56
79048;BME280;68680;50.764;6.120;2023-06-22T09:31:37;99338.88;;;24.35;60.76
79048;BME280;68680;50.764;6.120;2023-06-22T09:34:03;99337.25;;;24.25;60.97
79048;BME280;68680;50.764;6.120;2023-06-22T09:36:29;99354.56;;;24.21;61.78
79048;BME280;68680;50.764;6.120;2023-06-22T09:38:55;99368.25;;;23.98;62.74
79048;BME280;68680;50.764;6.120;2023-06-22T09:41:22;99396.63;;;24.06;62.98
79048;BME280;68680;50.764;6.120;2023-06-22T09:43:48;99425.59;;;23.93;63.19
79048;BME280;68680;50.764;6.120;2023-06-22T09:46:14;99445.53;;;23.80;63.64
79048;BME280;68680;50.764;6.120;2023-06-22T09:48:40;99459.63;;;23.82;62.42
79048;BME280;68680;50.764;6.120;2023-06-22T09:51:06;99458.22;;;23.85;62.90
79048;BME280;68680;50.764;6.120;2023-06-22T09:53:32;99461.13;;;23.88;63.98
79048;BME280;68680;50.764;6.120;2023-06-22T09:55:58;99458.03;;;23.59;70.39
79048;BME280;68680;50.764;6.120;2023-06-22T09:58:25;99452.94;;;23.08;74.47
79048;BME280;68680;50.764;6.120;2023-06-22T10:00:51;99454.38;;;22.50;79.05
79048;BME280;68680;50.764;6.120;2023-06-22T10:03:16;99463.69;;;22.03;84.41
79048;BME280;68680;50.764;6.120;2023-06-22T10:05:42;99457.31;;;21.94;85.20
79048;BME280;68680;50.764;6.120;2023-06-22T10:08:09;99469.31;;;21.75;85.65
79048;BME280;68680;50.764;6.120;2023-06-22T10:10:34;99465.78;;;21.60;89.10
79048;BME280;68680;50.764;6.120;2023-06-22T10:13:09;99468.34;;;21.52;89.63
79048;BME280;68680;50.764;6.120;2023-06-22T10:15:36;99467.91;;;21.26;88.99
79048;BME280;68680;50.764;6.120;2023-06-22T10:18:02;99474.84;;;21.13;91.07
79048;BME280;68680;50.764;6.120;2023-06-22T10:20:28;99467.66;;;21.04;92.92
79048;BME280;68680;50.764;6.120;2023-06-22T10:22:54;99459.75;;;21.07;90.48
79048;BME280;68680;50.764;6.120;2023-06-22T10:25:21;99446.09;;;20.94;92.70
79048;BME280;68680;50.764;6.120;2023-06-22T10:27:47;99444.50;;;20.69;92.72
79048;BME280;68680;50.764;6.120;2023-06-22T10:30:13;99443.22;;;20.66;94.67
79048;BME280;68680;50.764;6.120;2023-06-22T10:32:42;99430.97;;;20.69;95.96
79048;BME280;68680;50.764;6.120;2023-06-22T10:35:09;99419.75;;;20.75;96.60
79048;BME280;68680;50.764;6.120;2023-06-22T10:37:36;99395.63;;;20.79;96.07
79048;BME280;68680;50.764;6.120;2023-06-22T10:40:01;99381.81;;;20.75;95.88
79048;BME280;68680;50.764;6.120;2023-06-22T10:42:27;99384.53;;;20.75;95.59
79048;BME280;68680;50.764;6.120;2023-06-22T10:44:53;99377.66;;;20.83;96.37
79048;BME280;68680;50.764;6.120;2023-06-22T10:47:19;99371.25;;;20.92;97.13
79048;BME280;68680;50.764;6.120;2023-06-22T10:49:46;99366.88;;;20.97;96.95
79048;BME280;68680;50.764;6.120;2023-06-22T10:52:12;99355.16;;;21.20;97.21
79048;BME280;68680;50.764;6.120;2023-06-22T10:54:38;99336.97;;;21.20;96.17
79048;BME280;68680;50.764;6.120;2023-06-22T10:57:04;99341.91;;;21.32;95.52
79048;BME280;68680;50.764;6.120;2023-06-22T10:59:30;99350.19;;;21.41;95.17
79048;BME280;68680;50.764;6.120;2023-06-22T11:01:56;99330.91;;;21.42;93.93
79048;BME280;68680;50.764;6.120;2023-06-22T11:04:22;99312.72;;;21.43;95.42
79048;BME280;68680;50.764;6.120;2023-06-22T11:06:50;99298.84;;;21.44;94.85
79048;BME280;68680;50.764;6.120;2023-06-22T11:09:16;99286.59;;;21.47;95.08
79048;BME280;68680;50.764;6.120;2023-06-22T11:11:41;99275.78;;;21.60;95.38
79048;BME280;68680;50.764;6.120;2023-06-22T11:14:07;99263.38;;;21.68;94.31
79048;BME280;68680;50.764;6.120;2023-06-22T11:16:33;99263.41;;;21.82;94.89
79048;BME280;68680;50.764;6.120;2023-06-22T11:18:59;99267.03;;;22.04;94.92
79048;BME280;68680;50.764;6.120;2023-06-22T11:21:24;99266.16;;;22.31;94.19
79048;BME280;68680;50.764;6.120;2023-06-22T11:23:52;99264.13;;;22.50;92.92
79048;BME280;68680;50.764;6.120;2023-06-22T11:26:17;99255.59;;;22.66;91.04
79048;BME280;68680;50.764;6.120;2023-06-22T11:28:43;99253.38;;;22.68;90.54
79048;BME280;68680;50.764;6.120;2023-06-22T11:31:09;99264.03;;;22.78;89.67
79048;BME280;68680;50.764;6.120;2023-06-22T11:33:35;99260.13;;;22.70;87.86
79048;BME280;68680;50.764;6.120;2023-06-22T11:36:00;99256.00;;;22.73;89.11
79048;BME280;68680;50.764;6.120;2023-06-22T11:38:26;99256.13;;;22.90;89.41
79048;BME280;68680;50.764;6.120;2023-06-22T11:40:53;99257.94;;;22.95;89.23
79048;BME280;68680;50.764;6.120;2023-06-22T11:43:19;99250.00;;;23.07;87.52
79048;BME280;68680;50.764;6.120;2023-06-22T11:45:45;99248.34;;;22.97;87.06
79048;BME280;68680;50.764;6.120;2023-06-22T11:48:10;99245.13;;;22.95;84.44
79048;BME280;68680;50.764;6.120;2023-06-22T11:50:36;99244.44;;;22.89;86.18
79048;BME280;68680;50.764;6.120;2023-06-22T11:53:02;99247.97;;;22.90;84.81
79048;BME280;68680;50.764;6.120;2023-06-22T11:55:28;99247.72;;;22.78;86.02
79048;BME280;68680;50.764;6.120;2023-06-22T11:57:57;99231.75;;;22.76;87.03
79048;BME280;68680;50.764;6.120;2023-06-22T12:00:23;99221.66;;;22.77;86.68
79048;BME280;68680;50.764;6.120;2023-06-22T12:02:49;99229.19;;;22.80;84.78
79048;BME280;68680;50.764;6.120;2023-06-22T12:05:15;99220.44;;;22.83;85.37
79048;BME280;68680;50.764;6.120;2023-06-22T12:07:40;99220.53;;;22.78;86.49
79048;BME280;68680;50.764;6.120;2023-06-22T12:10:07;99212.63;;;22.90;87.57
79048;BME280;68680;50.764;6.120;2023-06-22T12:12:33;99202.53;;;22.90;84.70
79048;BME280;68680;50.764;6.120;2023-06-22T12:15:00;99219.63;;;22.82;86.71
79048;BME280;68680;50.764;6.120;2023-06-22T12:17:26;99216.28;;;22.85;87.27
79048;BME280;68680;50.764;6.120;2023-06-22T12:19:52;99205.69;;;22.84;87.76
79048;BME280;68680;50.764;6.120;2023-06-22T12:22:18;99204.97;;;22.92;88.10
79048;BME280;68680;50.764;6.120;2023-06-22T12:24:43;99194.25;;;23.26;85.00
79048;BME280;68680;50.764;6.120;2023-06-22T12:27:09;99176.81;;;23.58;81.94
79048;BME280;68680;50.764;6.120;2023-06-22T12:29:35;99177.31;;;23.78;80.51
79048;BME280;68680;50.764;6.120;2023-06-22T12:32:03;99183.91;;;23.94;80.92
79048;BME280;68680;50.764;6.120;2023-06-22T12:34:29;99186.13;;;23.83;80.12
79048;BME280;68680;50.764;6.120;2023-06-22T12:36:55;99186.63;;;23.85;80.19
79048;BME280;68680;50.764;6.120;2023-06-22T12:39:21;99187.91;;;23.79;80.43
79048;BME280;68680;50.764;6.120;2023-06-22T12:41:47;99178.88;;;23.61;79.48
79048;BME280;68680;50.764;6.120;2023-06-22T12:44:12;99176.03;;;23.35;81.11
79048;BME280;68680;50.764;6.120;2023-06-22T12:46:38;99163.06;;;23.32;82.67
79048;BME280;68680;50.764;6.120;2023-06-22T12:49:05;99163.72;;;23.29;81.61
79048;BME280;68680;50.764;6.120;2023-06-22T12:51:31;99162.31;;;23.41;82.72
79048;BME280;68680;50.764;6.120;2023-06-22T12:53:57;99164.31;;;23.26;83.91
79048;BME280;68680;50.764;6.120;2023-06-22T12:56:23;99160.63;;;23.22;81.42